createdAt,value
2023-03-05T00:01:33.374Z,101999.50
2023-03-05T00:03:35.397Z,101994.28
2023-03-05T00:05:36.891Z,101993.47
2023-03-05T00:07:38.398Z,101991.72
2023-03-05T00:09:40.613Z,101991.75
2023-03-05T00:11:42.185Z,101981.31
2023-03-05T00:13:43.693Z,101986.56
2023-03-05T00:15:45.133Z,101987.44
2023-03-05T00:17:46.657Z,101978.78
2023-03-05T00:19:48.185Z,101984.84
2023-03-05T00:21:49.652Z,101977.00
2023-03-05T00:23:52.079Z,101981.34
2023-03-05T00:25:53.974Z,101983.97
2023-03-05T00:27:55.520Z,101982.25
2023-03-05T00:29:57.248Z,101970.97
2023-03-05T00:31:58.799Z,101966.63
2023-03-05T00:34:03.174Z,101971.03
2023-03-05T00:36:08.395Z,101968.41
2023-03-05T00:38:10.727Z,101959.72
2023-03-05T00:40:12.772Z,101962.28
2023-03-05T00:42:14.283Z,101964.91
2023-03-05T00:44:15.876Z,101960.56
2023-03-05T00:46:17.511Z,101958.84
2023-03-05T00:48:19.367Z,101958.84
2023-03-05T00:50:20.818Z,101952.72
2023-03-05T00:52:22.295Z,101951.88
2023-03-05T00:54:23.845Z,101953.63
2023-03-05T00:56:25.624Z,101958.03
2023-03-05T00:58:27.457Z,101953.66
2023-03-05T01:00:29.118Z,101952.78
2023-03-05T01:02:31.834Z,101946.69
2023-03-05T01:04:34.833Z,101948.41
2023-03-05T01:06:36.350Z,101952.78
2023-03-05T01:08:38.259Z,101950.19
2023-03-05T01:10:39.771Z,101949.25
2023-03-05T01:12:41.248Z,101943.06
2023-03-05T01:14:42.741Z,101944.78
2023-03-05T01:16:44.282Z,101944.63
2023-03-05T01:18:45.776Z,101941.03
2023-03-05T01:20:48.226Z,101935.75
2023-03-05T01:22:49.850Z,101934.75
2023-03-05T01:24:51.343Z,101930.41
2023-03-05T01:26:52.821Z,101929.44
2023-03-05T01:28:54.336Z,101925.97
2023-03-05T01:30:55.947Z,101934.59
2023-03-05T01:32:57.441Z,101924.16
2023-03-05T01:34:58.882Z,101922.47
2023-03-05T01:37:00.422Z,101920.75
2023-03-05T01:39:02.740Z,101914.63
2023-03-05T01:41:04.487Z,101912.91
2023-03-05T01:43:11.980Z,101912.88
2023-03-05T01:45:17.147Z,101914.59
2023-03-05T01:47:18.620Z,101906.69
2023-03-05T01:49:27.923Z,101900.66
2023-03-05T01:51:33.886Z,101900.56
2023-03-05T01:53:36.375Z,101894.50
2023-03-05T01:55:38.112Z,101886.66
2023-03-05T01:57:48.775Z,101890.16
2023-03-05T01:59:53.894Z,101886.69
2023-03-05T02:01:57.705Z,101878.00
2023-03-05T02:04:00.097Z,101877.94
2023-03-05T02:06:01.606Z,101878.84
2023-03-05T02:08:06.571Z,101877.06
2023-03-05T02:10:22.886Z,101867.50
2023-03-05T02:12:27.385Z,101874.44
2023-03-05T02:14:29.061Z,101871.88
2023-03-05T02:16:35.924Z,101870.97
2023-03-05T02:18:37.550Z,101860.53
2023-03-05T02:20:47.028Z,101871.88
2023-03-05T02:22:48.559Z,101859.69
2023-03-05T02:24:50.652Z,101854.47
2023-03-05T02:26:52.226Z,101855.38
2023-03-05T02:28:58.279Z,101850.16
2023-03-05T02:30:59.797Z,101851.84
2023-03-05T02:33:01.714Z,101849.22
2023-03-05T02:35:03.358Z,101842.22
2023-03-05T02:37:08.982Z,101841.34
2023-03-05T02:39:10.481Z,101831.81
2023-03-05T02:41:12.438Z,101828.31
2023-03-05T02:43:13.983Z,101830.06
2023-03-05T02:45:15.688Z,101820.50
2023-03-05T02:47:17.146Z,101821.41
2023-03-05T02:49:18.743Z,101826.59
2023-03-05T02:51:20.230Z,101819.66
2023-03-05T02:53:23.645Z,101824.03
2023-03-05T02:55:25.162Z,101824.91
2023-03-05T02:57:26.613Z,101823.22
2023-03-05T02:59:28.106Z,101819.69
2023-03-05T03:01:29.923Z,101808.41
2023-03-05T03:03:31.537Z,101810.13
2023-03-05T03:05:33.091Z,101807.50
2023-03-05T03:07:36.519Z,101802.28
2023-03-05T03:09:38.931Z,101802.31
2023-03-05T03:11:40.418Z,101805.75
2023-03-05T03:13:41.945Z,101803.16
2023-03-05T03:15:43.516Z,101799.69
2023-03-05T03:17:45.309Z,101791.91
2023-03-05T03:19:46.943Z,101792.81
2023-03-05T03:21:50.266Z,101791.94
2023-03-05T03:23:51.775Z,101787.59
2023-03-05T03:25:53.290Z,101788.44
2023-03-05T03:27:54.777Z,101787.59
2023-03-05T03:29:56.306Z,101777.22
2023-03-05T03:31:58.202Z,101776.34
2023-03-05T03:33:59.698Z,101770.25
2023-03-05T03:36:01.424Z,101772.88
2023-03-05T03:38:03.227Z,101772.00
2023-03-05T03:40:06.189Z,101772.84
2023-03-05T03:42:07.768Z,101772.88
2023-03-05T03:44:10.682Z,101769.47
2023-03-05T03:46:12.300Z,101765.19
2023-03-05T03:48:13.834Z,101760.78
2023-03-05T03:50:15.304Z,101764.28
2023-03-05T03:52:17.355Z,101759.97
2023-03-05T03:54:19.460Z,101766.06
2023-03-05T03:56:20.940Z,101753.03
2023-03-05T03:58:22.401Z,101754.88
2023-03-05T04:00:24.015Z,101761.75
2023-03-05T04:02:26.160Z,101748.59
2023-03-05T04:04:29.145Z,101757.25
2023-03-05T04:06:31.390Z,101750.25
2023-03-05T04:08:32.862Z,101752.88
2023-03-05T04:10:34.324Z,101745.91
2023-03-05T04:12:35.779Z,101747.66
2023-03-05T04:14:37.300Z,101743.31
2023-03-05T04:16:38.778Z,101733.78
2023-03-05T04:18:40.601Z,101732.91
2023-03-05T04:20:42.101Z,101737.25
2023-03-05T04:22:43.592Z,101734.66
2023-03-05T04:24:45.152Z,101731.97
2023-03-05T04:26:46.605Z,101730.19
2023-03-05T04:28:48.350Z,101727.56
2023-03-05T04:30:49.904Z,101724.94
2023-03-05T04:32:51.399Z,101728.34
2023-03-05T04:34:52.835Z,101727.41
2023-03-05T04:36:54.308Z,101726.53
2023-03-05T04:38:55.771Z,101723.88
2023-03-05T04:40:57.232Z,101716.91
2023-03-05T04:42:58.698Z,101721.19
2023-03-05T04:45:00.185Z,101717.72
2023-03-05T04:47:01.657Z,101711.66
2023-03-05T04:49:03.169Z,101715.13
2023-03-05T04:51:04.964Z,101707.34
2023-03-05T04:53:06.655Z,101699.50
2023-03-05T04:55:09.045Z,101701.22
2023-03-05T04:57:10.517Z,101703.81
2023-03-05T04:59:12.045Z,101700.34
2023-03-05T05:01:13.667Z,101704.69
2023-03-05T05:03:15.467Z,101698.59
2023-03-05T05:05:22.081Z,101697.75
2023-03-05T05:07:23.540Z,101691.69
2023-03-05T05:09:25.866Z,101691.69
2023-03-05T05:11:27.418Z,101692.56
2023-03-05T05:13:30.027Z,101696.03
2023-03-05T05:15:32.270Z,101695.19
2023-03-05T05:17:34.390Z,101688.22
2023-03-05T05:19:35.904Z,101688.25
2023-03-05T05:21:37.452Z,101699.50
2023-03-05T05:23:39.431Z,101701.28
2023-03-05T05:25:41.338Z,101698.66
2023-03-05T05:27:42.896Z,101697.75
2023-03-05T05:29:46.320Z,101691.66
2023-03-05T05:31:48.329Z,101686.34
2023-03-05T05:33:50.063Z,101691.44
2023-03-05T05:35:51.643Z,101695.63
2023-03-05T05:37:53.180Z,101691.94
2023-03-05T05:39:54.848Z,101686.50
2023-03-05T05:41:56.346Z,101687.34
2023-03-05T05:43:57.883Z,101682.94
2023-03-05T05:46:05.154Z,101683.84
2023-03-05T05:48:07.444Z,101684.69
2023-03-05T05:50:10.827Z,101678.69
2023-03-05T05:52:13.249Z,101676.13
2023-03-05T05:54:15.455Z,101670.22
2023-03-05T05:56:18.106Z,101674.59
2023-03-05T05:58:19.650Z,101676.41
2023-03-05T06:00:21.526Z,101665.09
2023-03-05T06:02:23.033Z,101665.09
2023-03-05T06:04:24.491Z,101675.50
2023-03-05T06:06:27.394Z,101672.03
2023-03-05T06:08:28.877Z,101665.91
2023-03-05T06:10:30.362Z,101670.25
2023-03-05T06:12:31.849Z,101666.72
2023-03-05T06:14:33.523Z,101662.34
2023-03-05T06:16:35.199Z,101672.72
2023-03-05T06:18:36.924Z,101674.44
2023-03-05T06:20:38.373Z,101671.00
2023-03-05T06:22:40.406Z,101677.00
2023-03-05T06:24:41.903Z,101668.28
2023-03-05T06:26:43.365Z,101666.53
2023-03-05T06:28:44.872Z,101675.19
2023-03-05T06:30:46.502Z,101676.06
2023-03-05T06:32:48.021Z,101665.66
2023-03-05T06:34:50.501Z,101670.03
2023-03-05T06:36:52.029Z,101664.81
2023-03-05T06:38:54.102Z,101663.09
2023-03-05T06:40:55.537Z,101669.16
2023-03-05T06:42:57.017Z,101679.66
2023-03-05T06:44:58.475Z,101675.34
2023-03-05T06:46:59.905Z,101680.63
2023-03-05T06:49:02.645Z,101683.25
2023-03-05T06:51:04.616Z,101686.81
2023-03-05T06:53:06.076Z,101680.75
2023-03-05T06:55:08.354Z,101683.34
2023-03-05T06:57:10.605Z,101679.91
2023-03-05T06:59:13.704Z,101680.81
2023-03-05T07:01:15.976Z,101678.28
2023-03-05T07:03:18.187Z,101672.28
2023-03-05T07:05:19.628Z,101679.28
2023-03-05T07:07:21.069Z,101676.75
2023-03-05T07:09:22.623Z,101684.59
2023-03-05T07:11:25.066Z,101676.81
2023-03-05T07:13:27.203Z,101677.72
2023-03-05T07:15:28.666Z,101675.19
2023-03-05T07:17:30.108Z,101679.53
2023-03-05T07:19:31.635Z,101683.03
2023-03-05T07:21:34.978Z,101679.53
2023-03-05T07:23:37.502Z,101685.59
2023-03-05T07:25:39.672Z,101678.69
2023-03-05T07:27:41.112Z,101670.03
2023-03-05T07:29:42.555Z,101675.28
2023-03-05T07:31:44.006Z,101671.84
2023-03-05T07:33:50.559Z,101671.97
2023-03-05T07:35:52.127Z,101679.84
2023-03-05T07:37:54.960Z,101678.19
2023-03-05T07:39:56.440Z,101679.16
2023-03-05T07:41:57.920Z,101675.66
2023-03-05T07:43:59.485Z,101674.81
2023-03-05T07:46:07.592Z,101677.41
2023-03-05T07:48:13.866Z,101681.75
2023-03-05T07:50:15.438Z,101673.91
2023-03-05T07:52:16.894Z,101682.56
2023-03-05T07:54:18.436Z,101674.78
2023-03-05T07:56:25.869Z,101677.41
2023-03-05T07:58:27.400Z,101676.53
2023-03-05T08:00:29.029Z,101671.25
2023-03-05T08:02:30.540Z,101674.78
2023-03-05T08:04:32.144Z,101674.84
2023-03-05T08:06:33.757Z,101667.97
2023-03-05T08:08:36.252Z,101665.28
2023-03-05T08:10:38.513Z,101663.63
2023-03-05T08:12:40.022Z,101661.94
2023-03-05T08:14:41.491Z,101655.88
2023-03-05T08:16:42.965Z,101653.31
2023-03-05T08:18:45.289Z,101662.91
2023-03-05T08:20:46.794Z,101650.81
2023-03-05T08:22:48.259Z,101654.34
2023-03-05T08:24:50.587Z,101651.72
2023-03-05T08:26:52.053Z,101658.84
2023-03-05T08:28:54.167Z,101651.13
2023-03-05T08:30:55.655Z,101649.50
2023-03-05T08:32:57.389Z,101650.47
2023-03-05T08:34:58.988Z,101654.84
2023-03-05T08:37:00.480Z,101644.44
2023-03-05T08:39:01.969Z,101647.19
2023-03-05T08:41:03.753Z,101642.13
2023-03-05T08:43:06.224Z,101639.66
2023-03-05T08:45:09.187Z,101640.66
2023-03-05T08:47:10.663Z,101636.41
2023-03-05T08:49:12.159Z,101639.16
2023-03-05T08:51:16.412Z,101637.47
2023-03-05T08:53:17.961Z,101634.88
2023-03-05T08:55:19.540Z,101634.03
2023-03-05T08:57:21.124Z,101622.66
2023-03-05T08:59:22.594Z,101628.72
2023-03-05T09:01:24.190Z,101626.97
2023-03-05T09:03:26.012Z,101629.56
2023-03-05T09:05:27.590Z,101631.28
2023-03-05T09:07:29.071Z,101631.25
2023-03-05T09:09:32.575Z,101622.56
2023-03-05T09:11:36.175Z,101619.94
2023-03-05T09:13:37.719Z,101623.41
2023-03-05T09:15:39.469Z,101620.84
2023-03-05T09:17:42.344Z,101620.75
2023-03-05T09:19:44.002Z,101606.75
2023-03-05T09:21:45.453Z,101611.97
2023-03-05T09:23:47.337Z,101606.81
2023-03-05T09:25:49.635Z,101604.38
2023-03-05T09:27:51.092Z,101605.31
2023-03-05T09:29:53.273Z,101601.88
2023-03-05T09:31:54.879Z,101604.50
2023-03-05T09:33:56.355Z,101601.00
2023-03-05T09:35:58.001Z,101600.13
2023-03-05T09:37:59.482Z,101598.34
2023-03-05T09:40:01.310Z,101595.72
2023-03-05T09:42:23.341Z,101598.34
2023-03-05T09:44:58.581Z,101607.97
2023-03-05T09:47:21.806Z,101605.38
2023-03-05T09:49:50.880Z,101605.44
2023-03-05T09:51:57.587Z,101599.38
2023-03-05T09:54:12.274Z,101596.88
2023-03-05T09:56:16.869Z,101600.34
2023-03-05T09:58:31.006Z,101606.50
2023-03-05T10:00:45.045Z,101599.63
2023-03-05T10:02:58.477Z,101611.00
2023-03-05T10:05:18.930Z,101593.59
2023-03-05T10:07:26.236Z,101594.50
2023-03-05T10:09:49.321Z,101598.03
2023-03-05T10:12:28.703Z,101596.47
2023-03-05T10:14:34.304Z,101580.97
2023-03-05T10:16:50.725Z,101578.56
2023-03-05T10:19:04.110Z,101572.53
2023-03-05T10:21:30.692Z,101577.75
2023-03-05T10:23:47.174Z,101576.06
2023-03-05T10:26:01.574Z,101573.53
2023-03-05T10:28:09.423Z,101567.44
2023-03-05T10:30:38.408Z,101560.50
2023-03-05T10:33:15.379Z,101557.13
2023-03-05T10:35:25.907Z,101545.91
2023-03-05T10:37:55.414Z,101545.97
2023-03-05T10:40:18.285Z,101537.22
2023-03-05T10:42:28.695Z,101547.72
2023-03-05T10:44:44.632Z,101547.75
2023-03-05T10:46:48.114Z,101546.94
2023-03-05T10:49:06.352Z,101539.09
2023-03-05T10:51:31.583Z,101535.59
2023-03-05T10:53:44.826Z,101533.78
2023-03-05T10:55:46.313Z,101537.19
2023-03-05T10:57:48.405Z,101537.13
2023-03-05T10:59:51.133Z,101541.47
2023-03-05T11:02:04.979Z,101533.59
2023-03-05T11:04:28.477Z,101534.47
2023-03-05T11:06:34.249Z,101522.31
2023-03-05T11:08:36.286Z,101517.13
2023-03-05T11:10:37.747Z,101517.19
2023-03-05T11:12:39.545Z,101508.56
2023-03-05T11:15:10.306Z,101505.16
2023-03-05T11:17:37.778Z,101503.47
2023-03-05T11:19:41.354Z,101501.78
2023-03-05T11:21:44.280Z,101493.97
2023-03-05T11:24:21.358Z,101495.75
2023-03-05T11:26:23.218Z,101491.44
2023-03-05T11:28:33.702Z,101495.78
2023-03-05T11:30:36.841Z,101496.63
2023-03-05T11:32:38.458Z,101500.94
2023-03-05T11:34:40.203Z,101507.03
2023-03-05T11:36:43.806Z,101510.47
2023-03-05T11:39:08.589Z,101512.09
2023-03-05T11:41:10.808Z,101516.31
2023-03-05T11:43:18.941Z,101516.25
2023-03-05T11:45:20.955Z,101507.34
2023-03-05T11:47:34.149Z,101507.22
2023-03-05T11:49:43.687Z,101493.19
2023-03-05T11:52:08.085Z,101494.75
2023-03-05T11:54:16.493Z,101494.66
2023-03-05T11:56:26.972Z,101492.13
2023-03-05T11:58:39.209Z,101485.31
2023-03-05T12:00:44.683Z,101478.19
2023-03-05T12:02:52.313Z,101468.75
2023-03-05T12:04:53.993Z,101468.31
2023-03-05T12:07:02.179Z,101462.50
2023-03-05T12:09:11.887Z,101460.84
2023-03-05T12:11:18.807Z,101452.09
2023-03-05T12:13:28.931Z,101448.63
2023-03-05T12:15:46.825Z,101449.63
2023-03-05T12:18:03.629Z,101440.13
2023-03-05T12:20:11.092Z,101432.25
2023-03-05T12:22:20.043Z,101427.84
2023-03-05T12:24:27.544Z,101416.41
2023-03-05T12:26:59.257Z,101413.69
2023-03-05T12:29:01.279Z,101411.03
2023-03-05T12:31:27.540Z,101403.97
2023-03-05T12:33:43.925Z,101396.91
2023-03-05T12:35:45.426Z,101389.06
2023-03-05T12:37:50.104Z,101390.06
2023-03-05T12:40:04.683Z,101382.28
2023-03-05T12:42:45.880Z,101380.53
2023-03-05T12:45:09.962Z,101369.94
2023-03-05T12:47:11.388Z,101365.50
2023-03-05T12:49:18.982Z,101360.25
2023-03-05T12:51:35.872Z,101359.50
2023-03-05T12:53:37.551Z,101361.34
2023-03-05T12:55:47.946Z,101366.66
2023-03-05T12:58:11.680Z,101366.72
2023-03-05T13:00:26.975Z,101357.13
2023-03-05T13:02:34.497Z,101358.00
2023-03-05T13:04:46.249Z,101355.41
2023-03-05T13:07:02.403Z,101358.88
2023-03-05T13:09:15.788Z,101351.03
2023-03-05T13:11:21.084Z,101345.75
2023-03-05T13:13:25.669Z,101342.19
2023-03-05T13:15:27.184Z,101336.03
2023-03-05T13:17:35.354Z,101334.25
2023-03-05T13:19:36.845Z,101332.41
2023-03-05T13:21:38.380Z,101329.66
2023-03-05T13:23:52.290Z,101327.06
2023-03-05T13:25:59.372Z,101331.56
2023-03-05T13:28:07.158Z,101328.16
2023-03-05T13:30:22.094Z,101328.22
2023-03-05T13:32:33.187Z,101325.59
2023-03-05T13:34:47.761Z,101315.97
2023-03-05T13:37:25.127Z,101316.84
2023-03-05T13:39:30.049Z,101317.72
2023-03-05T13:41:31.570Z,101311.56
2023-03-05T13:43:33.130Z,101307.22
2023-03-05T13:45:34.681Z,101295.91
2023-03-05T13:47:37.057Z,101307.31
2023-03-05T13:49:38.522Z,101302.97
2023-03-05T13:51:49.759Z,101332.69
2023-03-05T13:53:52.108Z,101312.59
2023-03-05T13:55:59.083Z,101314.28
2023-03-05T13:58:00.606Z,101307.28
2023-03-05T14:00:02.610Z,101309.00
2023-03-05T14:02:15.815Z,101307.28
2023-03-05T14:04:27.487Z,101306.41
2023-03-05T14:06:30.984Z,101295.03
2023-03-05T14:08:33.321Z,101298.47
2023-03-05T14:10:37.378Z,101287.13
2023-03-05T14:12:42.584Z,101284.53
2023-03-05T14:14:44.403Z,101278.47
2023-03-05T14:16:45.987Z,101280.25
2023-03-05T14:18:59.197Z,101287.22
2023-03-05T14:21:09.923Z,101269.78
2023-03-05T14:23:32.858Z,101256.69
2023-03-05T14:25:38.575Z,101256.75
2023-03-05T14:27:40.077Z,101254.97
2023-03-05T14:29:46.504Z,101250.59
2023-03-05T14:31:58.669Z,101247.97
2023-03-05T14:34:06.332Z,101242.69
2023-03-05T14:36:10.585Z,101238.31
2023-03-05T14:38:22.264Z,101232.22
2023-03-05T14:40:33.440Z,101232.22
2023-03-05T14:42:55.365Z,101221.75
2023-03-05T14:45:01.675Z,101226.16
2023-03-05T14:47:03.168Z,101219.16
2023-03-05T14:49:04.677Z,101229.66
2023-03-05T14:51:07.686Z,101231.41
2023-03-05T14:53:15.256Z,101234.03
2023-03-05T14:55:22.794Z,101239.28
2023-03-05T14:57:29.484Z,101235.78
2023-03-05T14:59:30.976Z,101232.28
2023-03-05T15:01:32.510Z,101233.16
2023-03-05T15:03:34.017Z,101229.66
2023-03-05T15:05:37.853Z,101227.84
2023-03-05T15:07:39.377Z,101227.84
2023-03-05T15:09:40.801Z,101219.94
2023-03-05T15:11:42.262Z,101217.31
2023-03-05T15:13:43.805Z,101201.59
2023-03-05T15:15:47.277Z,101212.09
2023-03-05T15:17:56.044Z,101200.72
2023-03-05T15:19:57.497Z,101203.38
2023-03-05T15:21:58.956Z,101200.78
2023-03-05T15:24:00.458Z,101194.69
2023-03-05T15:26:05.513Z,101189.47
2023-03-05T15:28:07.097Z,101189.47
2023-03-05T15:30:14.837Z,101181.63
2023-03-05T15:32:16.598Z,101176.41
2023-03-05T15:34:18.066Z,101176.41
2023-03-05T15:36:19.522Z,101175.53
2023-03-05T15:38:21.645Z,101175.53
2023-03-05T15:40:23.526Z,101176.41
2023-03-05T15:42:24.956Z,101182.50
2023-03-05T15:44:26.750Z,101178.16
2023-03-05T15:46:28.337Z,101185.13
2023-03-05T15:48:29.870Z,101172.91
2023-03-05T15:50:31.626Z,101179.00
2023-03-05T15:52:33.197Z,101174.63
2023-03-05T15:54:35.500Z,101167.63
2023-03-05T15:56:37.054Z,101166.75
2023-03-05T15:58:39.511Z,101162.38
2023-03-05T16:00:41.017Z,101158.03
2023-03-05T16:02:42.586Z,101151.03
2023-03-05T16:04:44.351Z,101157.13
2023-03-05T16:06:48.003Z,101156.25
2023-03-05T16:08:53.550Z,101151.03
2023-03-05T16:10:55.004Z,101152.78
2023-03-05T16:13:04.124Z,101158.00
2023-03-05T16:15:06.338Z,101147.53
2023-03-05T16:17:08.701Z,101151.00
2023-03-05T16:19:12.997Z,101150.16
2023-03-05T16:21:14.647Z,101144.06
2023-03-05T16:23:16.161Z,101146.66
2023-03-05T16:25:18.086Z,101138.81
2023-03-05T16:27:19.592Z,101137.09
2023-03-05T16:29:21.039Z,101132.72
2023-03-05T16:31:22.630Z,101132.72
2023-03-05T16:33:25.617Z,101122.28
2023-03-05T16:35:27.190Z,101123.16
2023-03-05T16:37:28.705Z,101117.91
2023-03-05T16:39:30.639Z,101119.66
2023-03-05T16:41:32.750Z,101123.13
2023-03-05T16:43:34.205Z,101120.53
2023-03-05T16:45:37.221Z,101123.13
2023-03-05T16:47:39.771Z,101124.00
2023-03-05T16:49:41.446Z,101127.50
2023-03-05T16:51:42.898Z,101137.94
2023-03-05T16:53:44.479Z,101130.09
2023-03-05T16:55:45.938Z,101122.25
2023-03-05T16:57:47.459Z,101118.75
2023-03-05T16:59:48.911Z,101118.75
2023-03-05T17:01:50.499Z,101111.72
2023-03-05T17:03:53.487Z,101106.50
2023-03-05T17:05:55.326Z,101101.25
2023-03-05T17:07:56.960Z,101098.66
2023-03-05T17:09:58.517Z,101096.91
2023-03-05T17:12:00.133Z,101101.25
2023-03-05T17:14:03.898Z,101091.66
2023-03-05T17:16:06.446Z,101101.22
2023-03-05T17:18:08.213Z,101096.00
2023-03-05T17:20:10.636Z,101089.88
2023-03-05T17:22:12.913Z,101096.84
2023-03-05T17:24:14.386Z,101089.91
2023-03-05T17:26:17.861Z,101089.03
2023-03-05T17:28:19.851Z,101085.53
2023-03-05T17:30:21.353Z,101084.66
2023-03-05T17:32:22.971Z,101080.31
2023-03-05T17:34:35.719Z,101080.31
2023-03-05T17:36:39.216Z,101076.84
2023-03-05T17:38:40.729Z,101070.75
2023-03-05T17:40:42.381Z,101071.63
2023-03-05T17:42:43.970Z,101073.34
2023-03-05T17:44:45.444Z,101066.41
2023-03-05T17:46:47.134Z,101064.66
2023-03-05T17:48:48.614Z,101062.91
2023-03-05T17:50:50.187Z,101068.13
2023-03-05T17:52:51.727Z,101069.00
2023-03-05T17:54:53.328Z,101073.34
2023-03-05T17:56:56.016Z,101069.88
2023-03-05T17:58:57.549Z,101062.03
2023-03-05T18:01:00.287Z,101063.78
2023-03-05T18:03:02.490Z,101062.91
2023-03-05T18:05:04.287Z,101059.44
2023-03-05T18:07:06.145Z,101061.19
2023-03-05T18:09:07.723Z,101056.84
2023-03-05T18:11:09.190Z,101055.13
2023-03-05T18:13:10.721Z,101059.47
2023-03-05T18:15:14.645Z,101056.00
2023-03-05T18:17:16.407Z,101047.28
2023-03-05T18:19:18.707Z,101043.81
2023-03-05T18:21:21.509Z,101046.44
2023-03-05T18:23:23.159Z,101043.81
2023-03-05T18:25:30.731Z,101042.06
2023-03-05T18:27:32.215Z,101049.03
2023-03-05T18:29:34.011Z,101039.47
2023-03-05T18:31:35.504Z,101031.63
2023-03-05T18:33:38.877Z,101035.13
2023-03-05T18:35:40.376Z,101031.63
2023-03-05T18:37:41.999Z,101029.03
2023-03-05T18:39:43.512Z,101029.03
2023-03-05T18:41:46.638Z,101029.03
2023-03-05T18:43:48.393Z,101027.28
2023-03-05T18:45:51.994Z,101024.66
2023-03-05T18:47:54.372Z,101021.19
2023-03-05T18:49:56.429Z,101025.53
2023-03-05T18:51:57.878Z,101015.94
2023-03-05T18:53:59.346Z,101015.94
2023-03-05T18:56:01.623Z,101013.34
2023-03-05T18:58:03.386Z,101008.97
2023-03-05T19:00:05.430Z,101008.97
2023-03-05T19:02:14.117Z,101008.97
2023-03-05T19:04:15.630Z,101012.47
2023-03-05T19:06:17.958Z,101015.94
2023-03-05T19:08:20.280Z,101006.34
2023-03-05T19:10:22.724Z,101009.84
2023-03-05T19:12:30.825Z,101010.69
2023-03-05T19:14:32.280Z,101004.59
2023-03-05T19:16:40.416Z,100998.50
2023-03-05T19:18:57.176Z,101008.94
2023-03-05T19:20:58.642Z,101001.97
2023-03-05T19:23:00.096Z,100990.66
2023-03-05T19:25:01.780Z,100995.03
2023-03-05T19:27:10.128Z,100984.59
2023-03-05T19:29:12.348Z,100983.72
2023-03-05T19:31:14.783Z,100984.59
2023-03-05T19:33:16.262Z,100971.53
2023-03-05T19:35:18.300Z,100979.38
2023-03-05T19:37:20.112Z,100968.06
2023-03-05T19:39:21.630Z,100973.28
2023-03-05T19:41:23.470Z,100960.22
2023-03-05T19:43:24.914Z,100961.09
2023-03-05T19:45:26.379Z,100954.13
2023-03-05T19:47:28.092Z,100949.78
2023-03-05T19:49:29.979Z,100948.03
2023-03-05T19:51:31.463Z,100951.50
2023-03-05T19:53:32.996Z,100951.50
2023-03-05T19:55:39.175Z,100953.25
2023-03-05T19:57:40.639Z,100947.16
2023-03-05T19:59:44.086Z,100955.00
2023-03-05T20:01:46.078Z,100948.03
2023-03-05T20:03:49.375Z,100942.81
2023-03-05T20:05:50.871Z,100939.34
2023-03-05T20:07:53.602Z,100936.72
2023-03-05T20:09:55.526Z,100936.72
2023-03-05T20:11:58.300Z,100934.13
2023-03-05T20:13:59.829Z,100928.91
2023-03-05T20:16:01.575Z,100933.25
2023-03-05T20:18:03.157Z,100928.91
2023-03-05T20:20:05.137Z,100920.19
2023-03-05T20:22:06.766Z,100925.41
2023-03-05T20:24:12.037Z,100918.44
2023-03-05T20:26:13.566Z,100916.72
2023-03-05T20:28:15.169Z,100921.94
2023-03-05T20:30:17.936Z,100901.03
2023-03-05T20:32:19.543Z,100912.34
2023-03-05T20:34:21.153Z,100904.53
2023-03-05T20:36:23.767Z,100912.34
2023-03-05T20:38:29.542Z,100908.88
2023-03-05T20:40:30.991Z,100912.34
2023-03-05T20:42:33.132Z,100908.00
2023-03-05T20:44:34.644Z,100910.63
2023-03-05T20:46:41.847Z,100912.34
2023-03-05T20:48:43.757Z,100901.91
2023-03-05T20:50:46.820Z,100900.19
2023-03-05T20:52:48.265Z,100896.69
2023-03-05T20:54:49.765Z,100891.47
2023-03-05T20:56:51.262Z,100907.13
2023-03-05T20:58:52.717Z,100894.97
2023-03-05T21:00:54.800Z,100894.09
2023-03-05T21:02:56.522Z,100894.09
2023-03-05T21:04:58.023Z,100881.91
2023-03-05T21:06:59.467Z,100890.59
2023-03-05T21:09:01.013Z,100889.72
2023-03-05T21:11:07.972Z,100881.91
2023-03-05T21:13:09.425Z,100872.31
2023-03-05T21:15:17.311Z,100872.31
2023-03-05T21:17:19.611Z,100868.84
2023-03-05T21:19:21.053Z,100866.22
2023-03-05T21:21:22.657Z,100870.59
2023-03-05T21:23:24.165Z,100863.63
2023-03-05T21:25:30.164Z,100861.88
2023-03-05T21:27:31.614Z,100861.88
2023-03-05T21:29:33.074Z,100857.53
2023-03-05T21:31:34.677Z,100855.78
2023-03-05T21:33:37.431Z,100858.41
2023-03-05T21:35:40.358Z,100852.31
2023-03-05T21:37:42.864Z,100850.56
2023-03-05T21:39:44.340Z,100847.97
2023-03-05T21:41:47.157Z,100837.53
2023-03-05T21:43:48.806Z,100838.41
2023-03-05T21:45:53.495Z,100841.00
2023-03-05T21:47:56.221Z,100833.19
2023-03-05T21:49:57.861Z,100834.03
2023-03-05T21:52:09.052Z,100821.00
2023-03-05T21:54:10.567Z,100826.22
2023-03-05T21:56:12.873Z,100821.88
2023-03-05T21:58:14.698Z,100819.25
2023-03-05T22:00:22.541Z,100814.03
2023-03-05T22:02:24.794Z,100810.56
2023-03-05T22:04:26.289Z,100811.44
2023-03-05T22:06:27.763Z,100803.56
2023-03-05T22:08:29.994Z,100808.81
2023-03-05T22:10:31.518Z,100803.56
2023-03-05T22:13:02.190Z,100794.00
2023-03-05T22:15:03.944Z,100806.19
2023-03-05T22:17:05.568Z,100795.72
2023-03-05T22:19:07.162Z,100798.34
2023-03-05T22:21:17.035Z,100801.81
2023-03-05T22:23:23.167Z,100791.38
2023-03-05T22:25:24.640Z,100794.88
2023-03-05T22:27:26.081Z,100793.13
2023-03-05T22:29:28.559Z,100782.69
2023-03-05T22:31:30.561Z,100786.16
2023-03-05T22:33:32.459Z,100785.28
2023-03-05T22:35:33.936Z,100782.69
2023-03-05T22:37:35.453Z,100784.44
2023-03-05T22:39:36.980Z,100786.16
2023-03-05T22:41:40.763Z,100783.56
2023-03-05T22:43:42.356Z,100777.47
2023-03-05T22:45:44.007Z,100774.84
2023-03-05T22:47:51.594Z,100774.84
2023-03-05T22:49:53.571Z,100785.28
2023-03-05T22:51:55.029Z,100777.47
2023-03-05T22:53:56.502Z,100774.03
2023-03-05T22:55:58.082Z,100767.91
2023-03-05T22:57:59.633Z,100771.41
2023-03-05T23:00:01.080Z,100776.63
2023-03-05T23:02:02.900Z,100780.09
2023-03-05T23:04:13.365Z,100768.75
2023-03-05T23:06:14.873Z,100780.09
2023-03-05T23:08:16.323Z,100771.41
2023-03-05T23:10:24.935Z,100776.63
2023-03-05T23:12:30.336Z,100775.72
2023-03-05T23:14:31.827Z,100772.28
2023-03-05T23:16:33.275Z,100774.88
2023-03-05T23:18:34.788Z,100768.75
2023-03-05T23:20:37.284Z,100772.25
2023-03-05T23:22:39.971Z,100771.38
2023-03-05T23:24:41.530Z,100778.34
2023-03-05T23:26:43.029Z,100784.47
2023-03-05T23:28:44.568Z,100779.22
2023-03-05T23:30:46.193Z,100790.50
2023-03-05T23:32:52.801Z,100787.91
2023-03-05T23:34:55.837Z,100794.81
2023-03-05T23:37:00.520Z,100789.53
2023-03-05T23:39:01.983Z,100792.03